Time;durP1;ratioP1;P1;durP2;ratioP2;P2;SDS_P1;SDS_P2;PMS_P1;PMS_P2;Temp;Humidity;BMP_temperature;BMP_pressure;BME280_temperature;BME280_humidity;BME280_pressure;Samples;Min_cycle;Max_cycle;Signal;HPM_P1;HPM_P2
2022/08/19 00:02:01;;;;;;;;;24.25;21.00;;;;;;;;5109677;27;45388;-68
2022/08/19 00:04:29;;;;;;;;;25.50;23.75;;;;;;;;5119471;27;45245;-69
2022/08/19 00:06:55;;;;;;;;;20.75;19.50;;;;;;;;5117352;27;46701;-68
2022/08/19 00:09:21;;;;;;;;;23.50;20.25;;;;;;;;5111259;27;45336;-69
2022/08/19 00:11:47;;;;;;;;;25.00;23.50;;;;;;;;5114132;27;45380;-69
2022/08/19 00:14:14;;;;;;;;;22.50;21.25;;;;;;;;5115169;27;45400;-69
2022/08/19 00:16:41;;;;;;;;;24.25;21.00;;;;;;;;5117589;27;45622;-69
2022/08/19 00:19:06;;;;;;;;;23.75;20.75;;;;;;;;5115904;27;45162;-68
2022/08/19 00:21:31;;;;;;;;;19.25;18.00;;;;;;;;5116581;27;45387;-68
2022/08/19 00:23:57;;;;;;;;;21.25;18.00;;;;;;;;5116544;27;45474;-68
2022/08/19 00:26:23;;;;;;;;;20.00;19.00;;;;;;;;5119057;27;46255;-68
2022/08/19 00:28:48;;;;;;;;;15.25;15.25;;;;;;;;5118789;27;45207;-68
2022/08/19 00:31:13;;;;;;;;;18.25;16.75;;;;;;;;5118938;27;45594;-68
2022/08/19 00:33:39;;;;;;;;;18.33;18.33;;;;;;;;5119759;27;45636;-68
2022/08/19 00:36:06;;;;;;;;;18.33;18.33;;;;;;;;5107474;27;45403;-67
2022/08/19 00:38:32;;;;;;;;;17.33;17.33;;;;;;;;5122959;27;45449;-68
2022/08/19 00:40:57;;;;;;;;;20.33;18.00;;;;;;;;5111472;27;45512;-67
2022/08/19 00:43:25;;;;;;;;;20.33;18.33;;;;;;;;5111577;27;45446;-68
2022/08/19 00:45:51;;;;;;;;;19.33;18.67;;;;;;;;5110268;27;45354;-68
2022/08/19 00:48:17;;;;;;;;;17.33;16.67;;;;;;;;5115918;27;45287;-68
2022/08/19 00:50:42;;;;;;;;;17.00;15.33;;;;;;;;5113653;27;45503;-68
2022/08/19 00:53:08;;;;;;;;;18.33;17.67;;;;;;;;5117178;27;45273;-68
2022/08/19 00:55:33;;;;;;;;;18.33;15.33;;;;;;;;5116782;27;45745;-68
2022/08/19 00:58:04;;;;;;;;;14.67;14.67;;;;;;;;5117467;27;45402;-68
2022/08/19 01:00:30;;;;;;;;;19.00;17.33;;;;;;;;5119770;27;47054;-68
2022/08/19 01:02:55;;;;;;;;;15.00;15.00;;;;;;;;5116317;27;45216;-68
2022/08/19 01:05:22;;;;;;;;;17.00;15.00;;;;;;;;5115367;27;45688;-68
2022/08/19 01:07:50;;;;;;;;;15.67;13.67;;;;;;;;5114978;27;45350;-68
2022/08/19 01:10:18;;;;;;;;;18.67;16.00;;;;;;;;5106156;27;45462;-68
2022/08/19 01:12:44;;;;;;;;;16.67;15.67;;;;;;;;5120029;27;45446;-68
2022/08/19 01:15:10;;;;;;;;;17.00;15.00;;;;;;;;5107582;27;47542;-68
2022/08/19 01:17:37;;;;;;;;;15.33;15.33;;;;;;;;5111799;27;45460;-68
2022/08/19 01:20:03;;;;;;;;;20.50;18.50;;;;;;;;5110643;27;45547;-68
2022/08/19 01:22:48;;;;;;;;;19.33;17.33;;;;;;;;5114735;27;45514;-68
2022/08/19 01:25:16;;;;;;;;;16.00;15.00;;;;;;;;5102236;27;47897;-68
2022/08/19 01:27:43;;;;;;;;;15.33;15.33;;;;;;;;5112213;27;45694;-68
2022/08/19 01:30:10;;;;;;;;;17.50;17.50;;;;;;;;5114836;27;45379;-68
2022/08/19 01:32:35;;;;;;;;;19.00;17.00;;;;;;;;5114565;27;45177;-68
2022/08/19 01:35:02;;;;;;;;;22.00;17.50;;;;;;;;5119243;27;47537;-68
2022/08/19 01:37:27;;;;;;;;;19.25;18.75;;;;;;;;5117743;27;45446;-68
2022/08/19 01:39:53;;;;;;;;;17.25;16.25;;;;;;;;5116626;27;45415;-68
2022/08/19 01:42:18;;;;;;;;;17.50;15.75;;;;;;;;5117699;27;45542;-68
2022/08/19 01:44:44;;;;;;;;;20.50;17.75;;;;;;;;5111609;27;45355;-68
2022/08/19 01:47:09;;;;;;;;;20.75;17.25;;;;;;;;5119739;27;45416;-67
2022/08/19 01:49:34;;;;;;;;;17.75;17.75;;;;;;;;5112561;27;45469;-68
2022/08/19 01:52:00;;;;;;;;;23.50;19.25;;;;;;;;5119071;27;45222;-68
2022/08/19 01:54:25;;;;;;;;;24.25;22.75;;;;;;;;5115779;27;46714;-68
2022/08/19 01:56:52;;;;;;;;;17.50;17.50;;;;;;;;5123344;27;45572;-68
2022/08/19 01:59:18;;;;;;;;;18.25;18.25;;;;;;;;5123963;27;45371;-68
2022/08/19 02:01:44;;;;;;;;;20.00;16.00;;;;;;;;5115585;27;45665;-68
2022/08/19 02:04:09;;;;;;;;;17.50;17.50;;;;;;;;5114921;27;48242;-68
2022/08/19 02:06:35;;;;;;;;;19.67;19.00;;;;;;;;5123665;27;45305;-68
2022/08/19 02:09:01;;;;;;;;;22.50;20.25;;;;;;;;5123080;27;45312;-68
2022/08/19 02:11:27;;;;;;;;;15.50;15.50;;;;;;;;5124664;27;45384;-68
2022/08/19 02:13:53;;;;;;;;;14.33;14.33;;;;;;;;5125388;27;45288;-68
2022/08/19 02:16:19;;;;;;;;;18.75;15.00;;;;;;;;5112012;27;45455;-68
2022/08/19 02:18:48;;;;;;;;;18.25;16.25;;;;;;;;5113663;27;45485;-68
2022/08/19 02:21:14;;;;;;;;;15.25;14.75;;;;;;;;5125863;27;45551;-69
2022/08/19 02:23:39;;;;;;;;;15.00;14.33;;;;;;;;5113838;27;47024;-68
2022/08/19 02:26:05;;;;;;;;;15.75;15.75;;;;;;;;5111169;27;45316;-68
2022/08/19 02:28:30;;;;;;;;;15.33;13.00;;;;;;;;5123686;27;45597;-68
2022/08/19 02:30:55;;;;;;;;;19.25;16.75;;;;;;;;5120025;27;45627;-68
2022/08/19 02:33:20;;;;;;;;;18.50;17.50;;;;;;;;5119033;27;45574;-68
2022/08/19 02:35:46;;;;;;;;;22.00;18.75;;;;;;;;5117333;27;45315;-68
2022/08/19 02:38:27;;;;;;;;;18.25;16.50;;;;;;;;5117032;27;45243;-68
2022/08/19 02:40:54;;;;;;;;;17.25;12.75;;;;;;;;5109049;27;45417;-68
2022/08/19 02:43:22;;;;;;;;;23.25;18.25;;;;;;;;5119469;27;45445;-68
2022/08/19 02:45:48;;;;;;;;;17.75;17.50;;;;;;;;5119418;27;45344;-68
2022/08/19 02:48:18;;;;;;;;;13.50;11.75;;;;;;;;5122548;27;45239;-68
2022/08/19 02:50:44;;;;;;;;;23.00;21.75;;;;;;;;5119861;27;45311;-68
2022/08/19 02:53:09;;;;;;;;;23.75;20.50;;;;;;;;5116159;27;46253;-68
2022/08/19 02:55:34;;;;;;;;;19.25;17.50;;;;;;;;5110331;27;45295;-68
2022/08/19 02:57:59;;;;;;;;;19.00;19.00;;;;;;;;5118748;27;45281;-68
2022/08/19 03:00:25;;;;;;;;;29.25;20.75;;;;;;;;5113142;27;45478;-68
2022/08/19 03:02:51;;;;;;;;;15.67;15.67;;;;;;;;5116882;27;45315;-68
2022/08/19 03:05:16;;;;;;;;;17.67;14.33;;;;;;;;5122409;27;45176;-68
2022/08/19 03:07:41;;;;;;;;;15.67;13.00;;;;;;;;5120315;27;45283;-68
2022/08/19 03:10:07;;;;;;;;;18.75;17.75;;;;;;;;5120406;27;45290;-68
2022/08/19 03:12:34;;;;;;;;;19.50;17.50;;;;;;;;5120972;27;46234;-68
2022/08/19 03:15:00;;;;;;;;;17.50;16.25;;;;;;;;5122439;27;45295;-68
2022/08/19 03:17:25;;;;;;;;;17.67;15.67;;;;;;;;5123282;27;45318;-68
2022/08/19 03:19:50;;;;;;;;;15.00;15.00;;;;;;;;5125532;27;45357;-68
2022/08/19 03:22:16;;;;;;;;;21.00;17.67;;;;;;;;5112460;27;46522;-68
2022/08/19 03:24:41;;;;;;;;;22.00;20.67;;;;;;;;5104791;27;45316;-68
2022/08/19 03:27:06;;;;;;;;;20.00;20.00;;;;;;;;5120465;27;45541;-68
2022/08/19 03:29:31;;;;;;;;;16.67;15.67;;;;;;;;5121660;27;45376;-68
2022/08/19 03:32:00;;;;;;;;;19.33;18.00;;;;;;;;5112861;27;45470;-68
2022/08/19 03:34:30;;;;;;;;;23.33;18.67;;;;;;;;5119562;27;45312;-68
2022/08/19 03:36:56;;;;;;;;;15.67;13.33;;;;;;;;5116488;27;45528;-68
2022/08/19 03:39:22;;;;;;;;;16.67;13.67;;;;;;;;5119048;27;45269;-68
2022/08/19 03:41:49;;;;;;;;;23.33;15.67;;;;;;;;5113288;27;48418;-68
2022/08/19 03:44:17;;;;;;;;;17.75;17.25;;;;;;;;5121075;27;45237;-68
2022/08/19 03:46:43;;;;;;;;;21.50;21.25;;;;;;;;5114833;27;45337;-68
2022/08/19 03:49:08;;;;;;;;;17.00;17.00;;;;;;;;5117870;27;45322;-68
2022/08/19 03:51:35;;;;;;;;;13.67;13.67;;;;;;;;5114382;27;45967;-68
2022/08/19 03:54:02;;;;;;;;;14.00;14.00;;;;;;;;5121099;27;45340;-68
2022/08/19 03:56:28;;;;;;;;;15.00;13.33;;;;;;;;5116213;27;45379;-68
2022/08/19 03:58:53;;;;;;;;;15.75;14.75;;;;;;;;5119459;27;45383;-69
2022/08/19 04:01:20;;;;;;;;;17.67;16.33;;;;;;;;5117175;27;46517;-68
2022/08/19 04:03:46;;;;;;;;;20.67;18.00;;;;;;;;5111226;27;45372;-68
2022/08/19 04:06:14;;;;;;;;;17.75;14.75;;;;;;;;5110695;27;45325;-67
2022/08/19 04:08:40;;;;;;;;;15.67;15.67;;;;;;;;5114134;27;45330;-68
2022/08/19 04:11:09;;;;;;;;;12.67;12.67;;;;;;;;5112532;27;45380;-68
2022/08/19 04:13:35;;;;;;;;;19.00;16.67;;;;;;;;5108108;27;45336;-68
2022/08/19 04:16:00;;;;;;;;;11.50;10.00;;;;;;;;5115191;27;45196;-68
2022/08/19 04:18:25;;;;;;;;;17.00;17.00;;;;;;;;5112496;27;45455;-68
2022/08/19 04:20:50;;;;;;;;;15.33;14.33;;;;;;;;5115951;27;46151;-68
2022/08/19 04:23:15;;;;;;;;;18.33;16.00;;;;;;;;5113547;27;45405;-68
2022/08/19 04:25:43;;;;;;;;;15.00;14.00;;;;;;;;5116750;27;45335;-68
2022/08/19 04:28:09;;;;;;;;;17.33;15.67;;;;;;;;5116728;27;45447;-68
2022/08/19 04:30:41;;;;;;;;;24.00;21.00;;;;;;;;5117227;27;45298;-69
2022/08/19 04:33:07;;;;;;;;;16.00;16.00;;;;;;;;5118245;27;45292;-68
2022/08/19 04:35:51;;;;;;;;;16.67;11.33;;;;;;;;5120669;27;45281;-67
2022/08/19 04:38:18;;;;;;;;;16.00;15.00;;;;;;;;5121369;27;45331;-68
2022/08/19 04:43:32;;;;;;;;;12.67;10.67;;;;;;;;5121372;27;45434;-68
2022/08/19 04:45:58;;;;;;;;;18.00;15.00;;;;;;;;5116815;27;45475;-67
2022/08/19 04:48:26;;;;;;;;;17.00;14.67;;;;;;;;5122198;27;45448;-68
2022/08/19 04:50:57;;;;;;;;;13.33;11.00;;;;;;;;5118210;27;45186;-67
2022/08/19 04:53:22;;;;;;;;;14.00;13.00;;;;;;;;5113651;27;45299;-67
2022/08/19 04:55:47;;;;;;;;;13.33;12.00;;;;;;;;5108743;27;45335;-67
2022/08/19 04:58:12;;;;;;;;;16.33;12.67;;;;;;;;5115851;27;45387;-67
2022/08/19 05:00:39;;;;;;;;;15.33;13.33;;;;;;;;5110470;27;46401;-67
2022/08/19 05:03:04;;;;;;;;;11.33;11.33;;;;;;;;5116145;27;45438;-68
2022/08/19 05:05:31;;;;;;;;;12.67;12.67;;;;;;;;5119426;27;45221;-68
2022/08/19 05:07:56;;;;;;;;;15.00;13.33;;;;;;;;5121080;27;45219;-68
2022/08/19 05:10:21;;;;;;;;;11.00;10.00;;;;;;;;5117951;27;45512;-69
2022/08/19 05:12:46;;;;;;;;;5.00;5.00;;;;;;;;5123547;27;45594;-68
2022/08/19 05:15:12;;;;;;;;;11.00;10.00;;;;;;;;5124104;27;45417;-68
2022/08/19 05:17:37;;;;;;;;;11.67;10.67;;;;;;;;5117308;27;45250;-67
2022/08/19 05:22:47;;;;;;;;;12.33;11.33;;;;;;;;5121765;27;45290;-67
2022/08/19 05:25:14;;;;;;;;;10.00;10.00;;;;;;;;5124245;27;45231;-67
2022/08/19 05:27:40;;;;;;;;;12.33;12.33;;;;;;;;5124280;27;45395;-66
2022/08/19 05:30:05;;;;;;;;;10.67;10.00;;;;;;;;5117722;27;45373;-68
2022/08/19 05:32:30;;;;;;;;;8.67;7.00;;;;;;;;5120246;27;45409;-68
2022/08/19 05:34:56;;;;;;;;;8.67;7.67;;;;;;;;5126791;27;45238;-69
2022/08/19 05:37:21;;;;;;;;;9.33;8.33;;;;;;;;5115607;27;45383;-69
2022/08/19 05:39:48;;;;;;;;;9.00;9.00;;;;;;;;5118577;27;45337;-68
2022/08/19 05:42:14;;;;;;;;;15.67;13.67;;;;;;;;5117703;27;45439;-68
2022/08/19 05:44:43;;;;;;;;;10.67;8.67;;;;;;;;5117810;27;45476;-68
2022/08/19 05:47:08;;;;;;;;;8.33;8.33;;;;;;;;5117292;27;45370;-67
2022/08/19 05:49:34;;;;;;;;;11.33;10.00;;;;;;;;5119149;27;45562;-68
2022/08/19 05:52:01;;;;;;;;;7.00;7.00;;;;;;;;5119941;27;45419;-68
2022/08/19 05:54:26;;;;;;;;;8.33;8.33;;;;;;;;5120544;27;45465;-68
2022/08/19 05:56:52;;;;;;;;;9.67;8.00;;;;;;;;5123405;27;45490;-68
2022/08/19 05:59:19;;;;;;;;;9.00;9.00;;;;;;;;5118775;27;45476;-67
2022/08/19 06:01:45;;;;;;;;;9.00;9.00;;;;;;;;5113767;27;45273;-67
2022/08/19 06:04:13;;;;;;;;;13.00;12.00;;;;;;;;5117593;27;45320;-67
2022/08/19 06:06:38;;;;;;;;;8.00;8.00;;;;;;;;5120951;27;45442;-67
2022/08/19 06:09:04;;;;;;;;;9.67;7.33;;;;;;;;5122852;27;46005;-67
2022/08/19 06:11:35;;;;;;;;;7.67;7.67;;;;;;;;5113417;27;45475;-67
2022/08/19 06:14:07;;;;;;;;;7.67;7.67;;;;;;;;5112124;27;45262;-68
2022/08/19 06:16:34;;;;;;;;;9.00;8.00;;;;;;;;5116122;27;45524;-67
2022/08/19 06:19:01;;;;;;;;;7.00;7.00;;;;;;;;5114883;27;45794;-69
2022/08/19 06:21:27;;;;;;;;;6.67;6.67;;;;;;;;5116973;27;45329;-66
2022/08/19 06:23:52;;;;;;;;;7.00;7.00;;;;;;;;5117017;27;45287;-67
2022/08/19 06:26:18;;;;;;;;;5.33;4.00;;;;;;;;5117588;27;45580;-67
2022/08/19 06:28:46;;;;;;;;;9.67;8.67;;;;;;;;5115156;27;45801;-67
2022/08/19 06:31:14;;;;;;;;;11.33;11.33;;;;;;;;5118691;27;45248;-65
2022/08/19 06:33:39;;;;;;;;;5.33;4.33;;;;;;;;5120436;27;45406;-68
2022/08/19 06:36:04;;;;;;;;;8.33;8.33;;;;;;;;5117875;27;45230;-68
2022/08/19 06:38:30;;;;;;;;;8.67;7.00;;;;;;;;5124289;27;46333;-67
2022/08/19 06:41:05;;;;;;;;;8.00;7.00;;;;;;;;5119456;27;45513;-66
2022/08/19 06:43:30;;;;;;;;;10.33;8.00;;;;;;;;5115793;27;45602;-66
2022/08/19 06:45:55;;;;;;;;;8.00;8.00;;;;;;;;5110780;27;45463;-66
2022/08/19 06:48:20;;;;;;;;;7.00;6.00;;;;;;;;5119789;27;46440;-66
2022/08/19 06:50:47;;;;;;;;;9.00;8.00;;;;;;;;5112278;27;45314;-66
2022/08/19 06:53:12;;;;;;;;;7.00;7.00;;;;;;;;5120714;27;45286;-66
2022/08/19 06:55:37;;;;;;;;;8.00;6.33;;;;;;;;5115465;27;45217;-65
2022/08/19 06:58:04;;;;;;;;;6.00;6.00;;;;;;;;5118182;27;48073;-68
2022/08/19 07:00:29;;;;;;;;;5.33;4.00;;;;;;;;5115605;27;45542;-65
2022/08/19 07:02:54;;;;;;;;;7.33;5.33;;;;;;;;5122719;27;45426;-65
2022/08/19 07:05:19;;;;;;;;;5.33;4.67;;;;;;;;5119815;27;45459;-65
2022/08/19 07:07:44;;;;;;;;;8.33;5.67;;;;;;;;5122740;27;46094;-66
2022/08/19 07:10:10;;;;;;;;;7.00;5.33;;;;;;;;5122469;27;45396;-66
2022/08/19 07:12:35;;;;;;;;;4.00;4.00;;;;;;;;5119279;27;45446;-66
2022/08/19 07:15:00;;;;;;;;;4.33;3.67;;;;;;;;5105782;27;45522;-67
2022/08/19 07:17:26;;;;;;;;;2.00;2.00;;;;;;;;5115549;27;47984;-66
2022/08/19 07:19:52;;;;;;;;;1.67;1.67;;;;;;;;5107207;27;45275;-66
2022/08/19 07:22:17;;;;;;;;;2.00;2.00;;;;;;;;5117729;27;45390;-67
2022/08/19 07:24:43;;;;;;;;;4.00;3.00;;;;;;;;5107641;27;45420;-66
2022/08/19 07:27:09;;;;;;;;;2.00;2.00;;;;;;;;5115393;27;45536;-66
2022/08/19 07:29:35;;;;;;;;;5.33;5.00;;;;;;;;5116049;27;45379;-66
2022/08/19 07:32:01;;;;;;;;;2.00;2.00;;;;;;;;5114627;27;45426;-66
2022/08/19 07:34:27;;;;;;;;;6.67;6.33;;;;;;;;5122357;27;45434;-67
2022/08/19 07:36:53;;;;;;;;;5.00;4.00;;;;;;;;5114529;27;45549;-66
2022/08/19 07:39:20;;;;;;;;;4.67;3.67;;;;;;;;5123591;27;45209;-66
2022/08/19 07:41:46;;;;;;;;;3.67;3.67;;;;;;;;5116202;27;45486;-66
2022/08/19 07:44:12;;;;;;;;;5.33;3.67;;;;;;;;5114312;27;45385;-66
2022/08/19 07:46:39;;;;;;;;;6.00;5.00;;;;;;;;5111630;27;45375;-66
2022/08/19 07:49:05;;;;;;;;;5.00;5.00;;;;;;;;5114271;27;45382;-68
2022/08/19 07:51:31;;;;;;;;;6.33;5.00;;;;;;;;5112811;27;45407;-66
2022/08/19 07:53:56;;;;;;;;;3.00;3.00;;;;;;;;5117703;27;45310;-66
2022/08/19 07:56:22;;;;;;;;;5.33;5.00;;;;;;;;5111713;27;45635;-67
2022/08/19 07:58:48;;;;;;;;;3.00;3.00;;;;;;;;5120070;27;45288;-66
2022/08/19 08:01:15;;;;;;;;;2.00;2.00;;;;;;;;5112154;27;45370;-67
2022/08/19 08:09:12;;;;;;;;;3.00;3.00;;;;;;;;5120325;27;45258;-67
2022/08/19 08:11:38;;;;;;;;;3.67;3.67;;;;;;;;5110456;27;45342;-67
2022/08/19 08:14:04;;;;;;;;;3.00;3.00;;;;;;;;5116433;27;45451;-67
2022/08/19 08:16:31;;;;;;;;;3.33;3.33;;;;;;;;5121294;27;45497;-67
2022/08/19 08:18:56;;;;;;;;;4.67;3.33;;;;;;;;5109642;27;45253;-67
2022/08/19 08:21:21;;;;;;;;;3.00;3.00;;;;;;;;5109610;27;45569;-67
2022/08/19 08:23:46;;;;;;;;;4.00;4.00;;;;;;;;5113870;27;45514;-67
2022/08/19 08:26:14;;;;;;;;;6.33;4.00;;;;;;;;5109577;27;45502;-67
2022/08/19 08:28:39;;;;;;;;;2.00;0.00;;;;;;;;5122003;27;45271;-67
2022/08/19 08:31:04;;;;;;;;;3.00;3.00;;;;;;;;5116394;27;45615;-67
2022/08/19 08:33:31;;;;;;;;;2.33;2.33;;;;;;;;5115655;27;45481;-67
2022/08/19 08:35:56;;;;;;;;;4.00;3.00;;;;;;;;5116936;27;45707;-67
2022/08/19 08:38:21;;;;;;;;;4.67;2.33;;;;;;;;5120353;27;46461;-67
2022/08/19 08:40:49;;;;;;;;;3.67;3.67;;;;;;;;5118979;27;46496;-67
2022/08/19 08:43:21;;;;;;;;;2.67;2.67;;;;;;;;5116364;27;45160;-67
2022/08/19 08:45:54;;;;;;;;;3.00;3.00;;;;;;;;5107046;27;45995;-67
2022/08/19 08:48:26;;;;;;;;;2.00;2.00;;;;;;;;5117551;27;45339;-67
2022/08/19 08:50:53;;;;;;;;;1.67;0.67;;;;;;;;5109685;27;45479;-67
2022/08/19 08:53:19;;;;;;;;;2.67;2.67;;;;;;;;5118795;27;45295;-67
2022/08/19 08:55:45;;;;;;;;;1.00;1.00;;;;;;;;5111872;27;45385;-67
2022/08/19 08:58:15;;;;;;;;;1.00;1.00;;;;;;;;5118594;27;45446;-68
2022/08/19 09:00:43;;;;;;;;;1.00;1.00;;;;;;;;5114084;27;45431;-67
2022/08/19 09:03:25;;;;;;;;;2.00;2.00;;;;;;;;5119386;27;45570;-67
2022/08/19 09:05:50;;;;;;;;;3.00;2.00;;;;;;;;5114782;27;45237;-68
2022/08/19 09:08:28;;;;;;;;;1.33;1.33;;;;;;;;5122302;27;45285;-68
2022/08/19 09:10:55;;;;;;;;;5.00;2.00;;;;;;;;5118397;27;45398;-67
2022/08/19 09:13:20;;;;;;;;;1.00;1.00;;;;;;;;5122944;27;45320;-67
2022/08/19 09:15:48;;;;;;;;;2.67;2.67;;;;;;;;5119481;27;45503;-67
2022/08/19 09:18:14;;;;;;;;;0.33;0.33;;;;;;;;5112437;27;45425;-67
2022/08/19 09:20:39;;;;;;;;;3.00;2.00;;;;;;;;5107268;27;45474;-67
2022/08/19 09:23:05;;;;;;;;;2.00;2.00;;;;;;;;5119370;27;45492;-67
2022/08/19 09:25:31;;;;;;;;;4.33;4.00;;;;;;;;5121490;27;45659;-67
2022/08/19 09:27:57;;;;;;;;;4.00;2.67;;;;;;;;5119458;27;45228;-67
2022/08/19 09:30:27;;;;;;;;;3.00;3.00;;;;;;;;5114874;27;45339;-67
2022/08/19 09:32:53;;;;;;;;;4.00;3.00;;;;;;;;5118154;27;45440;-68
2022/08/19 09:35:19;;;;;;;;;3.00;3.00;;;;;;;;5119461;27;45482;-67
2022/08/19 09:37:44;;;;;;;;;1.00;1.00;;;;;;;;5114674;27;45330;-67
2022/08/19 09:40:10;;;;;;;;;3.67;3.67;;;;;;;;5122176;27;45375;-67
2022/08/19 09:42:35;;;;;;;;;2.00;2.00;;;;;;;;5119321;27;45354;-68
2022/08/19 09:45:00;;;;;;;;;3.00;3.00;;;;;;;;5113476;27;45266;-68
2022/08/19 09:47:25;;;;;;;;;4.00;2.00;;;;;;;;5114422;27;45406;-68
2022/08/19 09:49:50;;;;;;;;;5.00;5.00;;;;;;;;5115872;27;45486;-68
2022/08/19 09:52:16;;;;;;;;;6.67;4.00;;;;;;;;5118257;27;45241;-68
2022/08/19 09:54:41;;;;;;;;;4.00;4.00;;;;;;;;5116084;27;46880;-68
2022/08/19 09:57:07;;;;;;;;;6.00;3.00;;;;;;;;5121193;27;45228;-68
2022/08/19 09:59:32;;;;;;;;;7.33;7.33;;;;;;;;5119243;27;45513;-68
2022/08/19 10:01:58;;;;;;;;;5.00;5.00;;;;;;;;5121542;27;45462;-68
2022/08/19 10:05:47;;;;;;;;;8.33;7.33;;;;;;;;5121987;27;48203;-68
2022/08/19 10:07:08;;;;;;;;;6.00;5.00;;;;;;;;5122568;27;45231;-68
2022/08/19 10:09:33;;;;;;;;;3.00;3.00;;;;;;;;5107426;27;45433;-68
2022/08/19 10:12:00;;;;;;;;;2.00;1.00;;;;;;;;5118000;27;45671;-68
2022/08/19 10:14:27;;;;;;;;;4.00;4.00;;;;;;;;5112701;27;46183;-68
2022/08/19 10:16:52;;;;;;;;;2.00;2.00;;;;;;;;5112002;27;45346;-68
2022/08/19 10:19:17;;;;;;;;;4.00;4.00;;;;;;;;5114646;27;45514;-68
2022/08/19 10:21:42;;;;;;;;;3.00;3.00;;;;;;;;5117652;27;45284;-67
2022/08/19 10:24:07;;;;;;;;;4.00;4.00;;;;;;;;5118563;27;46239;-67
2022/08/19 10:26:36;;;;;;;;;5.67;5.00;;;;;;;;5115117;27;45368;-69
2022/08/19 10:29:02;;;;;;;;;3.67;3.00;;;;;;;;5117217;27;45195;-68
2022/08/19 10:31:28;;;;;;;;;3.67;3.67;;;;;;;;5118984;27;45257;-66
2022/08/19 10:33:57;;;;;;;;;1.67;1.67;;;;;;;;5122013;27;46468;-66
2022/08/19 10:36:23;;;;;;;;;4.00;3.00;;;;;;;;5116738;27;45422;-66
2022/08/19 10:38:50;;;;;;;;;2.00;2.00;;;;;;;;5123549;27;45486;-67
2022/08/19 10:41:19;;;;;;;;;2.00;2.00;;;;;;;;5119416;27;45398;-66
2022/08/19 10:43:45;;;;;;;;;2.00;2.00;;;;;;;;5114747;27;47024;-69
2022/08/19 10:46:11;;;;;;;;;1.00;1.00;;;;;;;;5108358;27;45450;-67
2022/08/19 10:48:37;;;;;;;;;2.00;2.00;;;;;;;;5121611;27;45502;-66
2022/08/19 10:53:47;;;;;;;;;4.00;3.00;;;;;;;;5113993;27;45347;-67
2022/08/19 10:58:57;;;;;;;;;3.00;2.67;;;;;;;;5122358;27;45434;-67
2022/08/19 11:01:23;;;;;;;;;3.00;3.00;;;;;;;;5118036;27;45585;-67
2022/08/19 11:03:48;;;;;;;;;2.00;2.00;;;;;;;;5122625;27;45467;-68
2022/08/19 11:06:13;;;;;;;;;2.00;2.00;;;;;;;;5118994;27;45449;-67
2022/08/19 11:08:38;;;;;;;;;2.00;2.00;;;;;;;;5122076;27;45442;-66
2022/08/19 11:11:05;;;;;;;;;1.00;1.00;;;;;;;;5120110;27;45285;-67
2022/08/19 11:13:32;;;;;;;;;2.00;2.00;;;;;;;;5115334;27;46448;-67
2022/08/19 11:15:58;;;;;;;;;3.33;2.00;;;;;;;;5111659;27;45596;-68
2022/08/19 11:18:24;;;;;;;;;2.00;2.00;;;;;;;;5117209;27;45269;-68
2022/08/19 11:20:49;;;;;;;;;2.00;1.00;;;;;;;;5113681;27;45602;-68
2022/08/19 11:23:14;;;;;;;;;2.67;2.33;;;;;;;;5119039;27;46306;-67
2022/08/19 11:25:39;;;;;;;;;5.00;3.00;;;;;;;;5114386;27;45347;-67
2022/08/19 11:28:04;;;;;;;;;2.00;2.00;;;;;;;;5118566;27;45218;-67
2022/08/19 11:30:30;;;;;;;;;2.33;2.33;;;;;;;;5117995;27;45427;-67
2022/08/19 11:32:55;;;;;;;;;2.00;2.00;;;;;;;;5117085;27;45495;-68
2022/08/19 11:35:23;;;;;;;;;3.00;3.00;;;;;;;;5118915;27;45288;-66
2022/08/19 11:37:48;;;;;;;;;5.00;4.00;;;;;;;;5119266;27;45310;-68
2022/08/19 11:40:13;;;;;;;;;4.67;3.00;;;;;;;;5120875;27;45853;-67
2022/08/19 11:42:56;;;;;;;;;8.00;7.33;;;;;;;;5113004;27;46868;-68
2022/08/19 11:45:22;;;;;;;;;16.67;14.00;;;;;;;;5109584;27;45452;-67
2022/08/19 11:47:48;;;;;;;;;12.33;12.33;;;;;;;;5116145;27;45331;-67
2022/08/19 11:50:14;;;;;;;;;4.00;4.00;;;;;;;;5112551;27;45535;-67
2022/08/19 11:52:39;;;;;;;;;6.00;4.33;;;;;;;;5115037;27;45383;-67
2022/08/19 11:55:05;;;;;;;;;3.67;2.67;;;;;;;;5115816;27;45384;-67
2022/08/19 11:57:30;;;;;;;;;3.00;2.00;;;;;;;;5117835;27;45389;-67
2022/08/19 11:59:55;;;;;;;;;2.33;2.33;;;;;;;;5116269;27;45257;-67
2022/08/19 12:02:21;;;;;;;;;4.00;2.00;;;;;;;;5116219;27;46318;-67
2022/08/19 12:04:47;;;;;;;;;16.33;16.33;;;;;;;;5118251;27;45285;-67
2022/08/19 12:07:12;;;;;;;;;6.00;6.00;;;;;;;;5119148;27;45442;-67
2022/08/19 12:09:38;;;;;;;;;4.00;4.00;;;;;;;;5121331;27;45528;-67
2022/08/19 12:12:04;;;;;;;;;4.00;4.00;;;;;;;;5120939;27;45458;-67
2022/08/19 12:14:31;;;;;;;;;4.33;3.67;;;;;;;;5122498;27;45366;-67
2022/08/19 12:16:57;;;;;;;;;3.00;3.00;;;;;;;;5117788;27;45287;-68
2022/08/19 12:19:23;;;;;;;;;3.00;3.00;;;;;;;;5113339;27;45428;-68
2022/08/19 12:21:50;;;;;;;;;2.67;2.67;;;;;;;;5117361;27;45687;-67
2022/08/19 12:24:15;;;;;;;;;4.67;3.67;;;;;;;;5120111;27;45283;-66
2022/08/19 12:26:40;;;;;;;;;4.33;3.67;;;;;;;;5110915;27;45382;-68
2022/08/19 12:29:05;;;;;;;;;4.33;3.67;;;;;;;;5122913;27;45239;-68
2022/08/19 12:31:31;;;;;;;;;3.00;3.00;;;;;;;;5116786;27;45360;-66
2022/08/19 12:33:57;;;;;;;;;3.67;3.00;;;;;;;;5117478;27;45404;-66
2022/08/19 12:36:23;;;;;;;;;4.00;2.00;;;;;;;;5110506;27;45784;-68
2022/08/19 12:38:48;;;;;;;;;2.00;2.00;;;;;;;;5118720;27;45408;-67
2022/08/19 12:41:15;;;;;;;;;4.00;2.00;;;;;;;;5106800;27;47147;-67
2022/08/19 12:43:42;;;;;;;;;1.00;1.00;;;;;;;;5122191;27;45719;-67
2022/08/19 12:46:09;;;;;;;;;3.00;2.00;;;;;;;;5111552;27;45411;-67
2022/08/19 12:48:34;;;;;;;;;4.00;3.00;;;;;;;;5121701;27;45345;-67
2022/08/19 12:51:01;;;;;;;;;7.00;7.00;;;;;;;;5114439;27;45788;-67
2022/08/19 12:53:27;;;;;;;;;5.00;5.00;;;;;;;;5122177;27;45288;-67
2022/08/19 12:55:56;;;;;;;;;3.33;3.00;;;;;;;;5115844;27;45316;-67
2022/08/19 12:58:22;;;;;;;;;3.00;3.00;;;;;;;;5118965;27;45425;-67
2022/08/19 13:00:48;;;;;;;;;6.67;3.33;;;;;;;;5112979;27;45481;-67
2022/08/19 13:03:14;;;;;;;;;4.00;4.00;;;;;;;;5111846;27;45349;-66
2022/08/19 13:05:39;;;;;;;;;4.00;2.33;;;;;;;;5107091;27;45308;-66
2022/08/19 13:08:04;;;;;;;;;1.00;1.00;;;;;;;;5121852;27;45337;-66
2022/08/19 13:10:34;;;;;;;;;1.33;1.33;;;;;;;;5121508;27;46592;-66
2022/08/19 13:13:01;;;;;;;;;2.00;2.00;;;;;;;;5110839;27;45466;-66
2022/08/19 13:15:28;;;;;;;;;2.00;2.00;;;;;;;;5107685;27;45549;-66
2022/08/19 13:17:55;;;;;;;;;2.00;2.00;;;;;;;;5120573;27;45476;-66
2022/08/19 13:20:21;;;;;;;;;2.00;2.00;;;;;;;;5119424;27;46435;-66
2022/08/19 13:22:46;;;;;;;;;2.00;2.00;;;;;;;;5118843;27;45405;-66
2022/08/19 13:25:12;;;;;;;;;7.00;3.33;;;;;;;;5118233;27;45431;-66
2022/08/19 13:27:38;;;;;;;;;3.00;2.00;;;;;;;;5115372;27;45794;-67
2022/08/19 13:35:31;;;;;;;;;4.00;2.00;;;;;;;;5122359;27;45595;-65
2022/08/19 13:37:56;;;;;;;;;4.00;4.00;;;;;;;;5124110;27;45387;-66
2022/08/19 13:40:23;;;;;;;;;2.33;2.33;;;;;;;;5123580;27;47272;-66
2022/08/19 13:42:50;;;;;;;;;3.67;2.00;;;;;;;;5121994;27;45366;-66
2022/08/19 13:45:19;;;;;;;;;3.00;3.00;;;;;;;;5119649;27;45382;-66
2022/08/19 13:47:49;;;;;;;;;4.33;3.00;;;;;;;;5121565;27;45672;-65
2022/08/19 13:50:19;;;;;;;;;4.00;3.67;;;;;;;;5119980;27;46051;-66
2022/08/19 13:52:45;;;;;;;;;2.00;2.00;;;;;;;;5117654;27;45456;-66
2022/08/19 13:55:11;;;;;;;;;0.67;0.00;;;;;;;;5123464;27;45289;-65
2022/08/19 13:57:38;;;;;;;;;7.33;6.00;;;;;;;;5122170;27;45601;-66
2022/08/19 14:00:05;;;;;;;;;4.00;4.00;;;;;;;;5121979;27;45435;-66
2022/08/19 14:02:30;;;;;;;;;5.00;5.00;;;;;;;;5121737;27;45460;-66
2022/08/19 14:04:55;;;;;;;;;3.00;3.00;;;;;;;;5125060;27;45405;-66
2022/08/19 14:07:23;;;;;;;;;18.67;8.00;;;;;;;;5124334;27;45525;-66
2022/08/19 14:09:48;;;;;;;;;4.00;4.00;;;;;;;;5106900;27;45703;-66
2022/08/19 14:12:13;;;;;;;;;8.00;6.33;;;;;;;;5116307;27;45423;-66
2022/08/19 14:14:39;;;;;;;;;5.00;3.33;;;;;;;;5122143;27;45426;-65
2022/08/19 14:17:09;;;;;;;;;8.67;6.67;;;;;;;;5116968;27;45528;-66
2022/08/19 14:19:34;;;;;;;;;6.00;5.00;;;;;;;;5122596;27;47596;-65
2022/08/19 14:21:59;;;;;;;;;1.67;1.67;;;;;;;;5119895;27;47544;-66
2022/08/19 14:24:24;;;;;;;;;5.00;3.00;;;;;;;;5125435;27;45209;-65
2022/08/19 14:26:49;;;;;;;;;6.33;6.33;;;;;;;;5119962;27;45169;-65
2022/08/19 14:29:15;;;;;;;;;2.33;2.00;;;;;;;;5119338;27;45366;-65
2022/08/19 14:31:42;;;;;;;;;3.67;3.67;;;;;;;;5110617;27;45949;-65
2022/08/19 14:34:09;;;;;;;;;5.33;3.67;;;;;;;;5121751;27;45507;-64
2022/08/19 14:36:35;;;;;;;;;2.00;1.00;;;;;;;;5113362;27;45477;-66
2022/08/19 14:39:00;;;;;;;;;3.00;3.00;;;;;;;;5112004;27;45327;-65
2022/08/19 14:41:26;;;;;;;;;1.00;1.00;;;;;;;;5111067;27;45370;-66
2022/08/19 14:43:52;;;;;;;;;2.00;2.00;;;;;;;;5116939;27;45306;-66
2022/08/19 14:46:22;;;;;;;;;4.67;4.67;;;;;;;;5111902;27;45438;-66
2022/08/19 14:48:48;;;;;;;;;4.33;2.00;;;;;;;;5137233;27;45986;-66
2022/08/19 14:51:14;;;;;;;;;2.33;2.33;;;;;;;;5120240;27;45246;-65